sensor_id;sensor_type;location;lat;lon;timestamp;P1;durP1;ratioP1;P2;durP2;ratioP2
24145;SDS011;12308;50.948;4.706;2022-11-15T00:01:09;54.75;;;30.25;;
24145;SDS011;12308;50.948;4.706;2022-11-15T00:03:39;52.63;;;29.33;;
24145;SDS011;12308;50.948;4.706;2022-11-15T00:06:04;55.88;;;31.13;;
24145;SDS011;12308;50.948;4.706;2022-11-15T00:08:31;58.97;;;30.55;;
24145;SDS011;12308;50.948;4.706;2022-11-15T00:11:00;61.92;;;29.75;;
24145;SDS011;12308;50.948;4.706;2022-11-15T00:13:27;53.83;;;28.85;;
24145;SDS011;12308;50.948;4.706;2022-11-15T00:15:56;61.72;;;30.30;;
24145;SDS011;12308;50.948;4.706;2022-11-15T00:18:23;57.10;;;30.73;;
24145;SDS011;12308;50.948;4.706;2022-11-15T00:20:49;60.75;;;31.73;;
24145;SDS011;12308;50.948;4.706;2022-11-15T00:23:14;49.28;;;29.42;;
24145;SDS011;12308;50.948;4.706;2022-11-15T00:25:41;51.33;;;30.50;;
24145;SDS011;12308;50.948;4.706;2022-11-15T00:28:07;61.47;;;30.50;;
24145;SDS011;12308;50.948;4.706;2022-11-15T00:30:33;50.53;;;28.88;;
24145;SDS011;12308;50.948;4.706;2022-11-15T00:33:03;52.78;;;30.33;;
24145;SDS011;12308;50.948;4.706;2022-11-15T00:35:31;56.88;;;31.60;;
24145;SDS011;12308;50.948;4.706;2022-11-15T00:37:58;58.50;;;31.33;;
24145;SDS011;12308;50.948;4.706;2022-11-15T00:40:25;58.28;;;30.85;;
24145;SDS011;12308;50.948;4.706;2022-11-15T00:42:51;58.70;;;30.60;;
24145;SDS011;12308;50.948;4.706;2022-11-15T00:45:16;55.40;;;29.73;;
24145;SDS011;12308;50.948;4.706;2022-11-15T00:47:45;56.90;;;29.80;;
24145;SDS011;12308;50.948;4.706;2022-11-15T00:50:11;54.72;;;31.13;;
24145;SDS011;12308;50.948;4.706;2022-11-15T00:52:38;53.05;;;29.42;;
24145;SDS011;12308;50.948;4.706;2022-11-15T00:55:03;54.00;;;30.23;;
24145;SDS011;12308;50.948;4.706;2022-11-15T00:57:29;54.85;;;30.73;;
24145;SDS011;12308;50.948;4.706;2022-11-15T00:59:55;55.42;;;31.05;;
24145;SDS011;12308;50.948;4.706;2022-11-15T01:02:21;52.60;;;29.73;;
24145;SDS011;12308;50.948;4.706;2022-11-15T01:04:46;53.13;;;29.38;;
24145;SDS011;12308;50.948;4.706;2022-11-15T01:07:12;52.10;;;29.63;;
24145;SDS011;12308;50.948;4.706;2022-11-15T01:09:38;57.78;;;31.38;;
24145;SDS011;12308;50.948;4.706;2022-11-15T01:12:04;58.80;;;31.10;;
24145;SDS011;12308;50.948;4.706;2022-11-15T01:14:29;58.97;;;30.48;;
24145;SDS011;12308;50.948;4.706;2022-11-15T01:16:55;55.85;;;32.15;;
24145;SDS011;12308;50.948;4.706;2022-11-15T01:19:21;56.08;;;32.17;;
24145;SDS011;12308;50.948;4.706;2022-11-15T01:21:49;53.05;;;29.85;;
24145;SDS011;12308;50.948;4.706;2022-11-15T01:24:15;57.50;;;30.02;;
24145;SDS011;12308;50.948;4.706;2022-11-15T01:26:41;53.97;;;30.20;;
24145;SDS011;12308;50.948;4.706;2022-11-15T01:29:07;53.15;;;30.13;;
24145;SDS011;12308;50.948;4.706;2022-11-15T01:31:33;52.78;;;30.20;;
24145;SDS011;12308;50.948;4.706;2022-11-15T01:33:58;50.00;;;30.10;;
24145;SDS011;12308;50.948;4.706;2022-11-15T01:36:24;60.33;;;30.98;;
24145;SDS011;12308;50.948;4.706;2022-11-15T01:38:53;57.60;;;29.77;;
24145;SDS011;12308;50.948;4.706;2022-11-15T01:41:30;52.78;;;29.70;;
24145;SDS011;12308;50.948;4.706;2022-11-15T01:44:28;56.67;;;30.48;;
24145;SDS011;12308;50.948;4.706;2022-11-15T01:47:02;51.60;;;30.08;;
24145;SDS011;12308;50.948;4.706;2022-11-15T01:49:34;53.45;;;30.75;;
24145;SDS011;12308;50.948;4.706;2022-11-15T01:52:06;54.80;;;30.60;;
24145;SDS011;12308;50.948;4.706;2022-11-15T01:54:36;48.45;;;30.10;;
24145;SDS011;12308;50.948;4.706;2022-11-15T01:57:04;54.95;;;31.65;;
24145;SDS011;12308;50.948;4.706;2022-11-15T01:59:34;61.15;;;31.33;;
24145;SDS011;12308;50.948;4.706;2022-11-15T02:02:01;56.42;;;32.03;;
24145;SDS011;12308;50.948;4.706;2022-11-15T02:04:27;58.47;;;31.73;;
24145;SDS011;12308;50.948;4.706;2022-11-15T02:06:55;60.25;;;31.80;;
24145;SDS011;12308;50.948;4.706;2022-11-15T02:09:21;55.53;;;31.42;;
24145;SDS011;12308;50.948;4.706;2022-11-15T02:11:47;58.78;;;31.55;;
24145;SDS011;12308;50.948;4.706;2022-11-15T02:14:13;61.53;;;31.77;;
24145;SDS011;12308;50.948;4.706;2022-11-15T02:30:21;66.97;;;35.22;;
24145;SDS011;12308;50.948;4.706;2022-11-15T02:33:26;65.25;;;33.17;;
24145;SDS011;12308;50.948;4.706;2022-11-15T02:36:00;63.28;;;35.35;;
24145;SDS011;12308;50.948;4.706;2022-11-15T02:41:47;64.10;;;33.50;;
24145;SDS011;12308;50.948;4.706;2022-11-15T02:47:15;63.70;;;32.75;;
24145;SDS011;12308;50.948;4.706;2022-11-15T02:49:50;60.42;;;31.88;;
24145;SDS011;12308;50.948;4.706;2022-11-15T02:52:22;64.85;;;33.92;;
24145;SDS011;12308;50.948;4.706;2022-11-15T02:54:57;66.32;;;34.00;;
24145;SDS011;12308;50.948;4.706;2022-11-15T02:57:45;62.38;;;33.15;;
24145;SDS011;12308;50.948;4.706;2022-11-15T03:00:27;60.97;;;32.67;;
24145;SDS011;12308;50.948;4.706;2022-11-15T03:03:13;62.33;;;33.42;;
24145;SDS011;12308;50.948;4.706;2022-11-15T03:08:32;58.42;;;32.13;;
24145;SDS011;12308;50.948;4.706;2022-11-15T03:16:40;59.60;;;32.05;;
24145;SDS011;12308;50.948;4.706;2022-11-15T03:22:05;61.67;;;31.80;;
24145;SDS011;12308;50.948;4.706;2022-11-15T03:24:36;60.35;;;31.58;;
24145;SDS011;12308;50.948;4.706;2022-11-15T03:27:03;57.95;;;30.08;;
24145;SDS011;12308;50.948;4.706;2022-11-15T03:29:39;57.92;;;32.75;;
24145;SDS011;12308;50.948;4.706;2022-11-15T03:32:13;52.25;;;31.10;;
24145;SDS011;12308;50.948;4.706;2022-11-15T03:37:15;60.35;;;32.35;;
24145;SDS011;12308;50.948;4.706;2022-11-15T03:39:42;66.35;;;33.35;;
24145;SDS011;12308;50.948;4.706;2022-11-15T03:44:52;55.72;;;32.33;;
24145;SDS011;12308;50.948;4.706;2022-11-15T03:47:32;59.05;;;31.20;;
24145;SDS011;12308;50.948;4.706;2022-11-15T03:50:13;53.17;;;31.77;;
24145;SDS011;12308;50.948;4.706;2022-11-15T03:52:44;54.75;;;29.77;;
24145;SDS011;12308;50.948;4.706;2022-11-15T03:55:12;58.92;;;33.08;;
24145;SDS011;12308;50.948;4.706;2022-11-15T03:57:40;54.67;;;31.77;;
24145;SDS011;12308;50.948;4.706;2022-11-15T04:00:06;58.25;;;32.92;;
24145;SDS011;12308;50.948;4.706;2022-11-15T04:02:32;62.72;;;32.75;;
24145;SDS011;12308;50.948;4.706;2022-11-15T04:04:58;58.65;;;31.55;;
24145;SDS011;12308;50.948;4.706;2022-11-15T04:07:24;57.38;;;32.60;;
24145;SDS011;12308;50.948;4.706;2022-11-15T04:09:49;61.00;;;32.00;;
24145;SDS011;12308;50.948;4.706;2022-11-15T04:12:31;54.50;;;29.95;;
24145;SDS011;12308;50.948;4.706;2022-11-15T04:15:03;53.88;;;29.13;;
24145;SDS011;12308;50.948;4.706;2022-11-15T04:17:33;57.97;;;30.27;;
24145;SDS011;12308;50.948;4.706;2022-11-15T04:20:05;54.90;;;29.52;;
24145;SDS011;12308;50.948;4.706;2022-11-15T04:22:52;56.42;;;29.17;;
24145;SDS011;12308;50.948;4.706;2022-11-15T04:25:37;49.28;;;27.88;;
24145;SDS011;12308;50.948;4.706;2022-11-15T04:28:03;48.65;;;27.17;;
24145;SDS011;12308;50.948;4.706;2022-11-15T04:30:28;55.92;;;27.75;;
24145;SDS011;12308;50.948;4.706;2022-11-15T04:32:54;46.92;;;26.40;;
24145;SDS011;12308;50.948;4.706;2022-11-15T04:35:20;48.20;;;25.85;;
24145;SDS011;12308;50.948;4.706;2022-11-15T04:37:45;43.33;;;24.33;;
24145;SDS011;12308;50.948;4.706;2022-11-15T04:40:11;46.35;;;24.48;;
24145;SDS011;12308;50.948;4.706;2022-11-15T04:42:37;44.20;;;24.50;;
24145;SDS011;12308;50.948;4.706;2022-11-15T04:45:02;43.55;;;23.88;;
24145;SDS011;12308;50.948;4.706;2022-11-15T04:47:28;39.70;;;23.50;;
24145;SDS011;12308;50.948;4.706;2022-11-15T04:49:54;42.75;;;22.75;;
24145;SDS011;12308;50.948;4.706;2022-11-15T04:52:20;40.75;;;22.92;;
24145;SDS011;12308;50.948;4.706;2022-11-15T04:54:45;40.80;;;22.98;;
24145;SDS011;12308;50.948;4.706;2022-11-15T04:57:11;42.08;;;23.02;;
24145;SDS011;12308;50.948;4.706;2022-11-15T04:59:37;41.63;;;21.23;;
24145;SDS011;12308;50.948;4.706;2022-11-15T05:02:02;41.13;;;21.60;;
24145;SDS011;12308;50.948;4.706;2022-11-15T05:04:28;37.75;;;22.08;;
24145;SDS011;12308;50.948;4.706;2022-11-15T05:06:53;35.38;;;21.50;;
24145;SDS011;12308;50.948;4.706;2022-11-15T05:09:19;36.22;;;20.20;;
24145;SDS011;12308;50.948;4.706;2022-11-15T05:11:45;40.38;;;20.15;;
24145;SDS011;12308;50.948;4.706;2022-11-15T05:14:11;38.38;;;21.10;;
24145;SDS011;12308;50.948;4.706;2022-11-15T05:16:37;32.95;;;18.05;;
24145;SDS011;12308;50.948;4.706;2022-11-15T05:19:04;36.53;;;18.50;;
24145;SDS011;12308;50.948;4.706;2022-11-15T05:21:30;32.25;;;17.90;;
24145;SDS011;12308;50.948;4.706;2022-11-15T05:23:56;31.02;;;18.00;;
24145;SDS011;12308;50.948;4.706;2022-11-15T05:26:22;31.13;;;16.60;;
24145;SDS011;12308;50.948;4.706;2022-11-15T05:28:51;33.15;;;17.10;;
24145;SDS011;12308;50.948;4.706;2022-11-15T05:31:19;28.75;;;16.15;;
24145;SDS011;12308;50.948;4.706;2022-11-15T05:33:44;32.25;;;16.10;;
24145;SDS011;12308;50.948;4.706;2022-11-15T05:38:45;32.50;;;16.67;;
24145;SDS011;12308;50.948;4.706;2022-11-15T05:41:12;28.88;;;15.90;;
24145;SDS011;12308;50.948;4.706;2022-11-15T05:43:39;29.58;;;15.65;;
24145;SDS011;12308;50.948;4.706;2022-11-15T05:46:07;31.25;;;15.60;;
24145;SDS011;12308;50.948;4.706;2022-11-15T05:48:36;27.10;;;15.68;;
24145;SDS011;12308;50.948;4.706;2022-11-15T05:51:05;32.42;;;16.38;;
24145;SDS011;12308;50.948;4.706;2022-11-15T05:53:32;30.25;;;15.73;;
24145;SDS011;12308;50.948;4.706;2022-11-15T05:55:59;28.33;;;16.02;;
24145;SDS011;12308;50.948;4.706;2022-11-15T05:58:25;28.02;;;15.32;;
24145;SDS011;12308;50.948;4.706;2022-11-15T06:00:51;30.30;;;15.65;;
24145;SDS011;12308;50.948;4.706;2022-11-15T06:03:16;26.83;;;14.73;;
24145;SDS011;12308;50.948;4.706;2022-11-15T06:05:42;25.10;;;14.00;;
24145;SDS011;12308;50.948;4.706;2022-11-15T06:08:08;29.33;;;13.63;;
24145;SDS011;12308;50.948;4.706;2022-11-15T06:10:33;26.20;;;14.82;;
24145;SDS011;12308;50.948;4.706;2022-11-15T06:13:00;31.08;;;15.07;;
24145;SDS011;12308;50.948;4.706;2022-11-15T06:15:27;26.20;;;14.40;;
24145;SDS011;12308;50.948;4.706;2022-11-15T06:17:53;33.65;;;14.63;;
24145;SDS011;12308;50.948;4.706;2022-11-15T06:20:22;25.20;;;13.68;;
24145;SDS011;12308;50.948;4.706;2022-11-15T06:22:58;29.75;;;13.98;;
24145;SDS011;12308;50.948;4.706;2022-11-15T06:25:26;25.27;;;13.18;;
24145;SDS011;12308;50.948;4.706;2022-11-15T06:27:55;30.25;;;14.13;;
24145;SDS011;12308;50.948;4.706;2022-11-15T06:30:22;26.33;;;14.32;;
24145;SDS011;12308;50.948;4.706;2022-11-15T06:32:48;29.70;;;14.70;;
24145;SDS011;12308;50.948;4.706;2022-11-15T06:35:14;33.50;;;14.50;;
24145;SDS011;12308;50.948;4.706;2022-11-15T06:37:40;27.85;;;14.43;;
24145;SDS011;12308;50.948;4.706;2022-11-15T06:40:07;27.05;;;15.30;;
24145;SDS011;12308;50.948;4.706;2022-11-15T06:42:34;26.60;;;14.82;;
24145;SDS011;12308;50.948;4.706;2022-11-15T06:45:00;35.55;;;14.63;;
24145;SDS011;12308;50.948;4.706;2022-11-15T06:47:26;27.40;;;14.98;;
24145;SDS011;12308;50.948;4.706;2022-11-15T06:49:52;37.28;;;15.60;;
24145;SDS011;12308;50.948;4.706;2022-11-15T06:52:17;31.60;;;15.60;;
24145;SDS011;12308;50.948;4.706;2022-11-15T06:54:44;28.75;;;16.10;;
24145;SDS011;12308;50.948;4.706;2022-11-15T06:57:10;30.58;;;15.38;;
24145;SDS011;12308;50.948;4.706;2022-11-15T06:59:36;29.42;;;15.45;;
24145;SDS011;12308;50.948;4.706;2022-11-15T07:02:02;32.10;;;16.08;;
24145;SDS011;12308;50.948;4.706;2022-11-15T07:04:28;42.88;;;15.70;;
24145;SDS011;12308;50.948;4.706;2022-11-15T07:06:54;32.08;;;16.88;;
24145;SDS011;12308;50.948;4.706;2022-11-15T07:09:19;32.47;;;17.58;;
24145;SDS011;12308;50.948;4.706;2022-11-15T07:11:45;36.65;;;17.92;;
24145;SDS011;12308;50.948;4.706;2022-11-15T07:14:10;31.17;;;17.17;;
24145;SDS011;12308;50.948;4.706;2022-11-15T07:16:36;37.72;;;17.38;;
24145;SDS011;12308;50.948;4.706;2022-11-15T07:19:03;36.13;;;17.65;;
24145;SDS011;12308;50.948;4.706;2022-11-15T07:21:28;42.20;;;18.65;;
24145;SDS011;12308;50.948;4.706;2022-11-15T07:23:54;43.80;;;17.48;;
24145;SDS011;12308;50.948;4.706;2022-11-15T07:26:20;34.15;;;16.58;;
24145;SDS011;12308;50.948;4.706;2022-11-15T07:28:46;38.47;;;17.02;;
24145;SDS011;12308;50.948;4.706;2022-11-15T07:31:11;33.10;;;16.42;;
24145;SDS011;12308;50.948;4.706;2022-11-15T07:33:37;34.65;;;16.65;;
24145;SDS011;12308;50.948;4.706;2022-11-15T07:36:03;37.50;;;17.33;;
24145;SDS011;12308;50.948;4.706;2022-11-15T07:38:31;32.70;;;16.98;;
24145;SDS011;12308;50.948;4.706;2022-11-15T07:40:58;39.88;;;17.00;;
24145;SDS011;12308;50.948;4.706;2022-11-15T07:43:25;35.58;;;16.42;;
24145;SDS011;12308;50.948;4.706;2022-11-15T07:45:53;35.28;;;15.38;;
24145;SDS011;12308;50.948;4.706;2022-11-15T07:48:19;28.73;;;15.70;;
24145;SDS011;12308;50.948;4.706;2022-11-15T07:50:45;29.13;;;15.10;;
24145;SDS011;12308;50.948;4.706;2022-11-15T07:53:10;28.13;;;14.13;;
24145;SDS011;12308;50.948;4.706;2022-11-15T07:55:36;25.35;;;12.70;;
24145;SDS011;12308;50.948;4.706;2022-11-15T07:58:03;25.70;;;13.15;;
24145;SDS011;12308;50.948;4.706;2022-11-15T08:00:33;27.00;;;12.40;;
24145;SDS011;12308;50.948;4.706;2022-11-15T08:03:07;21.77;;;11.82;;
24145;SDS011;12308;50.948;4.706;2022-11-15T08:05:34;22.08;;;11.77;;
24145;SDS011;12308;50.948;4.706;2022-11-15T08:08:01;24.05;;;12.55;;
24145;SDS011;12308;50.948;4.706;2022-11-15T08:10:26;23.58;;;11.23;;
24145;SDS011;12308;50.948;4.706;2022-11-15T08:12:56;19.77;;;11.80;;
24145;SDS011;12308;50.948;4.706;2022-11-15T08:15:23;28.55;;;10.77;;
24145;SDS011;12308;50.948;4.706;2022-11-15T08:17:53;20.23;;;10.40;;
24145;SDS011;12308;50.948;4.706;2022-11-15T08:20:22;20.08;;;10.20;;
24145;SDS011;12308;50.948;4.706;2022-11-15T08:22:49;23.05;;;10.27;;
24145;SDS011;12308;50.948;4.706;2022-11-15T08:25:15;19.65;;;9.60;;
24145;SDS011;12308;50.948;4.706;2022-11-15T08:27:41;17.75;;;9.02;;
24145;SDS011;12308;50.948;4.706;2022-11-15T08:30:06;14.35;;;8.40;;
24145;SDS011;12308;50.948;4.706;2022-11-15T08:32:32;20.08;;;7.90;;
24145;SDS011;12308;50.948;4.706;2022-11-15T08:34:59;14.88;;;7.10;;
24145;SDS011;12308;50.948;4.706;2022-11-15T08:37:24;11.55;;;6.20;;
24145;SDS011;12308;50.948;4.706;2022-11-15T08:39:50;11.35;;;5.50;;
24145;SDS011;12308;50.948;4.706;2022-11-15T08:42:15;10.15;;;4.60;;
24145;SDS011;12308;50.948;4.706;2022-11-15T08:44:41;10.82;;;4.15;;
24145;SDS011;12308;50.948;4.706;2022-11-15T08:47:07;11.50;;;4.40;;
24145;SDS011;12308;50.948;4.706;2022-11-15T08:49:35;8.02;;;3.88;;
24145;SDS011;12308;50.948;4.706;2022-11-15T08:52:01;10.70;;;3.05;;
24145;SDS011;12308;50.948;4.706;2022-11-15T08:54:26;9.90;;;3.20;;
24145;SDS011;12308;50.948;4.706;2022-11-15T08:56:52;9.57;;;3.05;;
24145;SDS011;12308;50.948;4.706;2022-11-15T08:59:18;9.00;;;2.72;;
24145;SDS011;12308;50.948;4.706;2022-11-15T09:01:43;7.90;;;2.40;;
24145;SDS011;12308;50.948;4.706;2022-11-15T09:04:09;10.38;;;2.88;;
24145;SDS011;12308;50.948;4.706;2022-11-15T09:06:35;9.43;;;3.00;;
24145;SDS011;12308;50.948;4.706;2022-11-15T09:09:01;6.28;;;2.28;;
24145;SDS011;12308;50.948;4.706;2022-11-15T09:11:27;9.30;;;2.88;;
24145;SDS011;12308;50.948;4.706;2022-11-15T09:13:53;9.85;;;3.00;;
24145;SDS011;12308;50.948;4.706;2022-11-15T09:16:18;8.93;;;2.58;;
24145;SDS011;12308;50.948;4.706;2022-11-15T09:18:44;10.05;;;2.80;;
24145;SDS011;12308;50.948;4.706;2022-11-15T09:21:10;9.20;;;2.47;;
24145;SDS011;12308;50.948;4.706;2022-11-15T09:23:36;8.00;;;3.13;;
24145;SDS011;12308;50.948;4.706;2022-11-15T09:26:02;12.40;;;2.40;;
24145;SDS011;12308;50.948;4.706;2022-11-15T09:28:29;10.50;;;3.28;;
24145;SDS011;12308;50.948;4.706;2022-11-15T09:30:59;6.47;;;2.38;;
24145;SDS011;12308;50.948;4.706;2022-11-15T09:33:26;10.27;;;2.80;;
24145;SDS011;12308;50.948;4.706;2022-11-15T09:35:52;16.20;;;3.20;;
24145;SDS011;12308;50.948;4.706;2022-11-15T09:38:18;7.00;;;2.63;;
24145;SDS011;12308;50.948;4.706;2022-11-15T09:40:43;10.63;;;2.67;;
24145;SDS011;12308;50.948;4.706;2022-11-15T09:49:03;11.23;;;2.28;;
24145;SDS011;12308;50.948;4.706;2022-11-15T09:51:34;9.73;;;2.72;;
24145;SDS011;12308;50.948;4.706;2022-11-15T10:04:33;9.13;;;2.30;;
24145;SDS011;12308;50.948;4.706;2022-11-15T10:07:06;7.72;;;1.90;;
24145;SDS011;12308;50.948;4.706;2022-11-15T10:09:43;9.55;;;1.60;;
24145;SDS011;12308;50.948;4.706;2022-11-15T10:12:11;7.82;;;1.80;;
24145;SDS011;12308;50.948;4.706;2022-11-15T10:14:38;9.45;;;1.75;;
24145;SDS011;12308;50.948;4.706;2022-11-15T10:22:38;11.23;;;2.17;;
24145;SDS011;12308;50.948;4.706;2022-11-15T10:25:16;8.73;;;1.73;;
24145;SDS011;12308;50.948;4.706;2022-11-15T10:27:56;7.85;;;2.28;;
24145;SDS011;12308;50.948;4.706;2022-11-15T10:30:29;13.45;;;3.03;;
24145;SDS011;12308;50.948;4.706;2022-11-15T10:32:57;8.45;;;2.00;;
24145;SDS011;12308;50.948;4.706;2022-11-15T10:35:27;11.63;;;1.70;;
24145;SDS011;12308;50.948;4.706;2022-11-15T10:38:05;10.85;;;2.00;;
24145;SDS011;12308;50.948;4.706;2022-11-15T10:40:32;10.55;;;2.08;;
24145;SDS011;12308;50.948;4.706;2022-11-15T10:45:30;5.72;;;1.60;;
24145;SDS011;12308;50.948;4.706;2022-11-15T10:48:43;7.15;;;2.05;;
24145;SDS011;12308;50.948;4.706;2022-11-15T10:50:44;7.32;;;1.90;;
24145;SDS011;12308;50.948;4.706;2022-11-15T10:53:17;5.70;;;1.55;;
24145;SDS011;12308;50.948;4.706;2022-11-15T10:55:48;10.93;;;2.70;;
24145;SDS011;12308;50.948;4.706;2022-11-15T11:01:15;13.35;;;1.92;;
24145;SDS011;12308;50.948;4.706;2022-11-15T11:06:13;8.68;;;1.83;;
24145;SDS011;12308;50.948;4.706;2022-11-15T11:08:53;11.98;;;2.30;;
24145;SDS011;12308;50.948;4.706;2022-11-15T11:11:23;7.85;;;1.90;;
24145;SDS011;12308;50.948;4.706;2022-11-15T11:13:50;5.93;;;1.88;;
24145;SDS011;12308;50.948;4.706;2022-11-15T11:22:12;10.30;;;2.05;;
24145;SDS011;12308;50.948;4.706;2022-11-15T11:27:59;11.45;;;2.03;;
24145;SDS011;12308;50.948;4.706;2022-11-15T11:33:24;7.15;;;1.50;;
24145;SDS011;12308;50.948;4.706;2022-11-15T11:36:21;5.18;;;1.70;;
24145;SDS011;12308;50.948;4.706;2022-11-15T12:00:36;19.23;;;4.85;;
24145;SDS011;12308;50.948;4.706;2022-11-15T12:06:06;5.65;;;1.35;;
24145;SDS011;12308;50.948;4.706;2022-11-15T12:08:55;5.10;;;1.25;;
24145;SDS011;12308;50.948;4.706;2022-11-15T12:14:22;7.10;;;1.55;;
24145;SDS011;12308;50.948;4.706;2022-11-15T12:16:56;6.05;;;1.20;;
24145;SDS011;12308;50.948;4.706;2022-11-15T12:19:23;9.07;;;1.25;;
24145;SDS011;12308;50.948;4.706;2022-11-15T12:24:24;9.57;;;1.45;;
24145;SDS011;12308;50.948;4.706;2022-11-15T12:27:00;13.32;;;1.98;;
24145;SDS011;12308;50.948;4.706;2022-11-15T12:32:04;7.60;;;1.63;;
24145;SDS011;12308;50.948;4.706;2022-11-15T12:34:40;8.25;;;1.58;;
24145;SDS011;12308;50.948;4.706;2022-11-15T12:40:16;6.35;;;1.52;;
24145;SDS011;12308;50.948;4.706;2022-11-15T12:43:02;6.13;;;1.52;;
24145;SDS011;12308;50.948;4.706;2022-11-15T12:45:41;8.00;;;1.90;;
24145;SDS011;12308;50.948;4.706;2022-11-15T12:56:04;7.72;;;1.52;;
24145;SDS011;12308;50.948;4.706;2022-11-15T12:58:42;3.58;;;1.45;;
24145;SDS011;12308;50.948;4.706;2022-11-15T13:14:58;10.18;;;2.03;;
24145;SDS011;12308;50.948;4.706;2022-11-15T13:17:48;8.82;;;2.67;;
24145;SDS011;12308;50.948;4.706;2022-11-15T13:22:51;9.13;;;2.72;;
24145;SDS011;12308;50.948;4.706;2022-11-15T13:28:02;4.53;;;1.83;;
24145;SDS011;12308;50.948;4.706;2022-11-15T13:30:40;5.03;;;2.03;;
24145;SDS011;12308;50.948;4.706;2022-11-15T13:33:37;5.07;;;1.88;;
24145;SDS011;12308;50.948;4.706;2022-11-15T13:36:09;4.07;;;1.80;;
24145;SDS011;12308;50.948;4.706;2022-11-15T13:38:44;6.07;;;2.10;;
24145;SDS011;12308;50.948;4.706;2022-11-15T13:41:28;6.88;;;1.80;;
24145;SDS011;12308;50.948;4.706;2022-11-15T13:44:01;8.50;;;4.40;;
24145;SDS011;12308;50.948;4.706;2022-11-15T13:46:29;94.03;;;72.30;;
24145;SDS011;12308;50.948;4.706;2022-11-15T13:48:58;16.10;;;10.55;;
24145;SDS011;12308;50.948;4.706;2022-11-15T13:51:31;10.13;;;3.88;;
24145;SDS011;12308;50.948;4.706;2022-11-15T13:56:50;5.38;;;1.88;;
24145;SDS011;12308;50.948;4.706;2022-11-15T13:59:24;6.20;;;2.30;;
24145;SDS011;12308;50.948;4.706;2022-11-15T14:02:02;3.15;;;1.70;;
24145;SDS011;12308;50.948;4.706;2022-11-15T14:04:37;4.75;;;1.90;;
24145;SDS011;12308;50.948;4.706;2022-11-15T14:07:14;4.35;;;1.65;;
24145;SDS011;12308;50.948;4.706;2022-11-15T14:09:43;6.63;;;2.85;;
24145;SDS011;12308;50.948;4.706;2022-11-15T14:14:55;417.85;;;157.10;;
24145;SDS011;12308;50.948;4.706;2022-11-15T14:19:56;130.00;;;45.30;;
24145;SDS011;12308;50.948;4.706;2022-11-15T14:27:44;34.28;;;14.73;;
24145;SDS011;12308;50.948;4.706;2022-11-15T14:30:32;106.72;;;42.58;;
24145;SDS011;12308;50.948;4.706;2022-11-15T14:32:58;52.25;;;20.75;;
24145;SDS011;12308;50.948;4.706;2022-11-15T14:35:23;74.85;;;32.25;;
24145;SDS011;12308;50.948;4.706;2022-11-15T14:37:49;58.53;;;25.10;;
24145;SDS011;12308;50.948;4.706;2022-11-15T14:40:16;56.00;;;23.42;;
24145;SDS011;12308;50.948;4.706;2022-11-15T14:42:47;44.38;;;19.02;;
24145;SDS011;12308;50.948;4.706;2022-11-15T14:45:15;27.83;;;10.98;;
24145;SDS011;12308;50.948;4.706;2022-11-15T14:47:45;49.28;;;23.02;;
24145;SDS011;12308;50.948;4.706;2022-11-15T14:50:15;314.45;;;117.68;;
24145;SDS011;12308;50.948;4.706;2022-11-15T14:52:43;75.90;;;30.73;;
24145;SDS011;12308;50.948;4.706;2022-11-15T14:55:15;39.33;;;16.80;;
24145;SDS011;12308;50.948;4.706;2022-11-15T14:57:44;13.82;;;7.65;;
24145;SDS011;12308;50.948;4.706;2022-11-15T15:00:10;13.00;;;8.02;;
24145;SDS011;12308;50.948;4.706;2022-11-15T15:02:37;12.35;;;6.88;;
24145;SDS011;12308;50.948;4.706;2022-11-15T15:05:12;6.18;;;3.25;;
24145;SDS011;12308;50.948;4.706;2022-11-15T15:07:40;9.63;;;4.70;;
24145;SDS011;12308;50.948;4.706;2022-11-15T15:10:07;3.78;;;2.50;;
24145;SDS011;12308;50.948;4.706;2022-11-15T15:12:33;6.75;;;3.40;;
24145;SDS011;12308;50.948;4.706;2022-11-15T15:14:59;17.40;;;10.90;;
24145;SDS011;12308;50.948;4.706;2022-11-15T15:17:24;11.32;;;4.13;;
24145;SDS011;12308;50.948;4.706;2022-11-15T15:19:50;13.80;;;10.02;;
24145;SDS011;12308;50.948;4.706;2022-11-15T15:22:16;8.75;;;5.03;;
24145;SDS011;12308;50.948;4.706;2022-11-15T15:24:44;9.02;;;2.85;;
24145;SDS011;12308;50.948;4.706;2022-11-15T15:27:10;3.65;;;2.78;;
24145;SDS011;12308;50.948;4.706;2022-11-15T15:29:36;3.65;;;2.75;;
24145;SDS011;12308;50.948;4.706;2022-11-15T15:32:02;6.82;;;3.35;;
24145;SDS011;12308;50.948;4.706;2022-11-15T15:34:28;6.97;;;2.63;;
24145;SDS011;12308;50.948;4.706;2022-11-15T15:37:06;5.47;;;2.90;;
24145;SDS011;12308;50.948;4.706;2022-11-15T15:39:51;4.43;;;2.67;;
24145;SDS011;12308;50.948;4.706;2022-11-15T15:42:21;6.43;;;3.15;;
24145;SDS011;12308;50.948;4.706;2022-11-15T15:44:48;7.07;;;3.50;;
24145;SDS011;12308;50.948;4.706;2022-11-15T15:49:43;6.95;;;3.80;;
24145;SDS011;12308;50.948;4.706;2022-11-15T15:52:08;8.65;;;3.30;;
24145;SDS011;12308;50.948;4.706;2022-11-15T15:54:34;8.32;;;3.17;;
24145;SDS011;12308;50.948;4.706;2022-11-15T15:57:00;9.13;;;3.40;;
24145;SDS011;12308;50.948;4.706;2022-11-15T15:59:25;7.80;;;3.10;;
24145;SDS011;12308;50.948;4.706;2022-11-15T16:01:51;7.65;;;3.17;;
24145;SDS011;12308;50.948;4.706;2022-11-15T16:04:17;5.28;;;2.90;;
24145;SDS011;12308;50.948;4.706;2022-11-15T16:06:43;5.55;;;2.97;;
24145;SDS011;12308;50.948;4.706;2022-11-15T16:09:12;5.25;;;3.45;;
24145;SDS011;12308;50.948;4.706;2022-11-15T16:11:40;10.38;;;3.95;;
24145;SDS011;12308;50.948;4.706;2022-11-15T16:14:06;9.20;;;3.50;;
24145;SDS011;12308;50.948;4.706;2022-11-15T16:16:33;6.30;;;3.35;;
24145;SDS011;12308;50.948;4.706;2022-11-15T16:18:59;8.20;;;3.95;;
24145;SDS011;12308;50.948;4.706;2022-11-15T16:21:26;7.72;;;4.13;;
24145;SDS011;12308;50.948;4.706;2022-11-15T16:23:52;10.30;;;4.90;;
24145;SDS011;12308;50.948;4.706;2022-11-15T16:26:22;8.77;;;5.03;;
24145;SDS011;12308;50.948;4.706;2022-11-15T16:28:50;8.35;;;4.75;;
24145;SDS011;12308;50.948;4.706;2022-11-15T16:31:16;8.50;;;5.30;;
24145;SDS011;12308;50.948;4.706;2022-11-15T16:33:45;10.05;;;5.82;;
24145;SDS011;12308;50.948;4.706;2022-11-15T16:36:19;6.72;;;4.10;;
24145;SDS011;12308;50.948;4.706;2022-11-15T16:38:49;9.70;;;4.20;;
24145;SDS011;12308;50.948;4.706;2022-11-15T16:41:15;6.57;;;4.22;;
24145;SDS011;12308;50.948;4.706;2022-11-15T16:43:46;11.18;;;5.82;;
24145;SDS011;12308;50.948;4.706;2022-11-15T16:46:14;15.85;;;9.25;;
24145;SDS011;12308;50.948;4.706;2022-11-15T16:48:44;45.00;;;25.75;;
24145;SDS011;12308;50.948;4.706;2022-11-15T16:51:10;16.70;;;9.60;;
24145;SDS011;12308;50.948;4.706;2022-11-15T16:53:36;13.32;;;8.57;;
24145;SDS011;12308;50.948;4.706;2022-11-15T16:56:02;15.02;;;12.73;;
24145;SDS011;12308;50.948;4.706;2022-11-15T16:58:28;11.73;;;4.90;;
24145;SDS011;12308;50.948;4.706;2022-11-15T17:00:54;11.80;;;4.18;;
24145;SDS011;12308;50.948;4.706;2022-11-15T17:03:21;9.52;;;4.80;;
24145;SDS011;12308;50.948;4.706;2022-11-15T17:05:48;10.00;;;4.25;;
24145;SDS011;12308;50.948;4.706;2022-11-15T17:08:14;7.78;;;5.60;;
24145;SDS011;12308;50.948;4.706;2022-11-15T17:10:39;11.23;;;5.78;;
24145;SDS011;12308;50.948;4.706;2022-11-15T17:13:07;7.63;;;4.63;;
24145;SDS011;12308;50.948;4.706;2022-11-15T17:15:35;7.05;;;4.25;;
24145;SDS011;12308;50.948;4.706;2022-11-15T17:18:01;11.02;;;6.63;;
24145;SDS011;12308;50.948;4.706;2022-11-15T17:20:27;8.45;;;5.57;;